Prairie Du Chien, WI

3:08 AM CDT on April 28, 2017 (GMT -0500)
Prairie Du Chien Municipal | | Change Station
Active Advisory: Frost Advisory

Elev 659 ft 43.02 °N, 91.12 °W | Updated 13 minutes ago

Clear
Clear
35 °F
Feels Like 28 °F
N
9
Wind Variable Wind from WNW

Today
High -- | Low -- °F
--% Chance of Precip.
Yesterday
High -- | Low -- °F
Precip. -- in
Pressure 29.87 in
Visibility 10.0 miles
Clouds Clear
Windchill 28 °F
Dew Point 28 °F
Humidity 76%
Rainfall 0.00 in
Snow Depth Not available.
6:02 AM 8:02 PM
Waxing Crescent, 5% visible
METAR KPDC 280755Z AUTO 29008KT 10SM CLR 02/M02 A2987 RMK AO2 T00161023
Pressure 29.87 in
Visibility 10.0 miles
Clouds Clear
Windchill 28 °F
Dew Point 28 °F
Humidity 76%
Rainfall 0.00 in
Snow Depth Not available.
6:02 AM 8:02 PM
Waxing Crescent, 5% visible
METAR KPDC 280755Z AUTO 29008KT 10SM CLR 02/M02 A2987 RMK AO2 T00161023

Get Your Daily Forecast Email!

Thanks for signing up!

Be on the lookout for a verification email in your inbox.

You'll start receiving severe weather alerts in your inbox..

×

10-Day Weather Forecast

Almanac

Astronomy

Apr. 28, 2017 Rise Set
Actual Time
Civil Twilight
Nautical Twilight
Astronomical Twilight
Moon
Length of Visible Light
Length of Day
Tomorrow will be .
, % of the Moon is Illuminated

Today's Extremes

State Highs State Lows

Community

WunderPhotos

WunderBlog® & News

Nearby

Air Quality

  Air Quality AQ Index Pollutant
Not available.

Snow Depth

Station Depth Elevation

Earthquake Activity

City Distance Mag. Time & Date
Minimum magnitude displayed is 2.5.

Coastal Water Temperatures

Place Temperature

Stations

Nearby Weather Stations

Station Location Temp. Windchill Dew Point Humidity Wind Precip. Elev Updated Type
                   

Watches & Warnings

Frost Advisory
Issued: 7:52 PM CDT Apr. 27, 2017 – National Weather Service

... Frost advisory remains in effect from 1 am to 8 am CDT
Friday...

* low temperatures of 30 to 35 degrees expected tonight, with some
normally colder valley locations in the upper 20s.

* Areas of frost may damage or kill sensitive vegetation. Cover
or bring plants indoors if possible.

Precautionary/preparedness actions...

A frost advisory means that areas of frost are expected.
Sensitive outdoor plants may be killed if left uncovered.



Lawrence